Latest Weather Observations for Fowlers Gap

IDN60801

Issued at 6:35 pm EST Wednesday 1 October 2014 (issued every 30 minutes, with the page automatically refreshed every 10 minutes)

About weather observations | Map of weather stations | Latest weather observations for NSW | Other Formats
Station Details ID: 046128 Name: FOWLERS GAP AWS Lat: -31.09 Lon: 141.70 Height: 181.0 m
Data from the previous 72 hours. | See also: Recent months at Fowlers Gap
Date/Time
EST
Temp
°C
App
Temp
°C
Dew
Point
Rel
Hum
%
Delta-T
°C
Wind Press
QNH
hPa
Press
MSL
hPa
Rain
since 9 am
mm
Dir
 
Spd
km/h
Gust
km/h
Spd
kts
Gust
kts
01/06:30pm 18.4 12.6 0.1 29 8.0 SSE 20 28 11 15 1023.6 1023.1 0.0
01/06:00pm 19.0 13.2 0.1 28 8.3 SSE 20 32 11 17 1023.4 1022.9 0.0
01/05:30pm 19.5 12.8 -1.0 25 8.9 SE 24 35 13 19 1023.2 1022.7 0.0
01/05:00pm 19.9 12.9 -0.7 25 9.0 SSE 26 32 14 17 1023.0 1022.5 0.0
01/04:30pm 20.7 14.2 0.0 25 9.3 SSE 24 35 13 19 1023.1 1022.6 0.0
01/04:00pm 20.2 13.7 0.1 26 9.0 S 24 30 13 16 1023.0 1022.5 0.0
01/03:30pm 20.7 14.1 -0.6 24 9.4 SE 24 33 13 18 1023.2 1022.7 0.0
01/03:00pm 20.0 13.8 -0.6 25 9.0 SE 22 28 12 15 1023.2 1022.7 0.0
01/02:30pm 19.7 13.3 0.7 28 8.6 S 24 32 13 17 1023.5 1023.0 0.0
01/02:00pm 18.9 12.7 0.0 28 8.3 SE 22 35 12 19 1024.0 1023.5 0.0
01/01:30pm 18.9 12.5 1.0 30 8.1 SSE 24 33 13 18 1024.4 1023.9 0.0
01/01:00pm 19.1 12.7 1.1 30 8.1 SSE 24 32 13 17 1024.7 1024.2 0.0
01/12:30pm 18.5 11.8 1.5 32 7.7 SE 26 35 14 19 1025.0 1024.5 0.0
01/12:00pm 17.6 10.5 1.2 33 7.3 SSE 28 41 15 22 1025.2 1024.7 0.0
01/11:30am 17.2 9.8 1.6 35 7.0 SE 30 43 16 23 1025.5 1025.0 0.0
01/11:00am 16.4 9.4 1.7 37 6.5 SE 28 41 15 22 1025.8 1025.3 0.0
01/10:30am 16.2 8.6 2.6 40 6.2 SSE 32 43 17 23 1025.9 1025.4 0.0
01/10:00am 15.6 8.5 3.4 44 5.6 SE 30 41 16 22 1026.0 1025.5 0.0
01/09:30am 14.6 7.1 3.7 48 5.0 SSE 32 43 17 23 1026.0 1025.8 0.0
01/09:00am 14.0 6.4 3.8 50 4.7 SE 33 44 18 24 1025.8 1025.6 0.0
01/08:30am 14.1 6.7 4.9 54 4.3 SSE 33 44 18 24 1025.4 1025.2 0.0
01/08:00am 13.1 5.7 5.0 58 3.8 SSE 33 44 18 24 1025.2 1025.0 0.0
01/07:30am 13.0 6.9 4.9 58 3.8 SSE 26 37 14 20 1024.8 1024.5 0.0
01/07:00am 12.4 6.4 5.1 61 3.4 SSE 26 39 14 21 1024.4 1024.1 0.0
01/06:30am 12.1 4.9 5.0 62 3.3 SSE 32 44 17 24 1023.9 1023.6 0.0
01/06:00am 12.2 6.2 5.1 62 3.3 SSE 26 35 14 19 1023.3 1023.0 0.0
01/05:30am 12.5 7.3 5.7 63 3.2 SSE 22 30 12 16 1022.8 1022.5 0.0
01/05:00am 12.9 6.2 5.8 62 3.4 SSE 30 39 16 21 1022.4 1022.1 0.0
01/04:30am 13.6 7.7 7.4 66 3.1 SSE 28 39 15 21 1021.9 1021.6 0.0
01/04:00am 14.0 8.9 6.1 59 3.8 SSE 22 28 12 15 1021.5 1021.2 0.0
01/03:30am 14.6 8.1 4.9 52 4.6 S 28 39 15 21 1021.1 1020.8 0.0
01/03:00am 15.0 9.3 5.0 51 4.7 S 24 35 13 19 1021.0 1020.7 0.0
01/02:30am 15.6 10.1 7.4 58 4.1 S 26 39 14 21 1020.7 1020.5 0.0
01/02:00am 16.2 11.5 7.9 58 4.2 S 22 32 12 17 1020.5 1020.3 0.0
01/01:30am 17.1 12.1 8.0 55 4.7 S 24 37 13 20 1020.4 1020.2 0.0
01/01:00am 17.8 14.4 7.5 51 5.2 S 15 20 8 11 1020.2 1020.0 0.0
01/12:30am 18.8 12.0 6.9 46 6.0 S 32 46 17 25 1019.7 1019.4 0.0
01/12:00am 20.3 13.8 6.3 40 7.1 S 30 46 16 25 1018.9 1018.6 0.0
 
Date/Time
EST
Temp
°C
App
Temp
°C
Dew
Point
Rel
Hum
%
Delta-T
°C
Wind Press
QNH
hPa
Press
MSL
hPa
Rain
since 9 am
mm
Dir
 
Spd
km/h
Gust
km/h
Spd
kts
Gust
kts
30/11:30pm 21.1 15.1 5.5 36 7.8 S 26 33 14 18 1018.4 1018.1 0.0
30/11:00pm 21.5 16.5 4.6 33 8.3 SSW 20 26 11 14 1018.2 1017.9 0.0
30/10:30pm 19.7 16.8 4.6 37 7.4 SW 9 13 5 7 1017.8 1017.5 0.0
30/10:00pm 20.2 17.2 4.3 35 7.7 WSW 9 13 5 7 1017.3 1017.0 0.0
30/09:30pm 21.6 18.5 3.8 31 8.7 SW 9 11 5 6 1017.0 1016.7 0.0
30/09:00pm 22.7 19.2 3.3 28 9.4 SW 11 13 6 7 1016.7 1016.4 0.0
30/08:30pm 23.7 19.8 3.6 27 9.9 SW 13 15 7 8 1016.5 1016.2 0.0
30/08:00pm 25.4 20.1 2.8 23 11.1 WSW 20 26 11 14 1016.1 1015.8 0.0
30/07:30pm 26.4 20.2 2.3 21 11.8 WSW 24 30 13 16 1015.5 1015.1 0.0
30/07:00pm 27.4 20.5 2.5 20 12.3 SW 28 35 15 19 1014.9 1014.6 0.0
30/06:30pm 28.3 22.5 2.5 19 12.8 W 22 28 12 15 1014.3 1014.0 0.0
30/06:00pm 29.4 21.6 1.8 17 13.6 W 32 43 17 23 1014.1 1013.8 0.0
30/05:30pm 30.1 22.4 2.4 17 13.9 WSW 32 39 17 21 1013.8 1013.5 0.0
30/05:00pm 30.7 22.4 2.0 16 14.4 W 35 54 19 29 1013.5 1013.2 0.0
30/04:32pm 31.1 22.7 1.4 15 14.8 W 35 56 19 30 1013.4 1013.1 0.0
30/04:30pm 31.2 23.2 1.5 15 14.8 W 33 43 18 23 1013.5 1013.2 0.0
30/04:00pm 31.3 23.5 1.6 15 14.8 W 32 41 17 22 1013.5 1013.2 0.0
30/03:45pm 31.2 23.9 2.4 16 14.6 W 30 48 16 26 1013.5 1013.2 0.0
30/03:30pm 31.6 23.8 2.7 16 14.7 W 33 48 18 26 1013.5 1013.2 0.0
30/03:00pm 31.0 23.7 2.3 16 14.5 WNW 30 39 16 21 1013.7 1013.4 0.0
30/02:30pm 30.9 24.1 3.0 17 14.2 WSW 28 41 15 22 1014.3 1014.0 0.0
30/02:00pm 30.7 22.7 3.7 18 13.9 WSW 35 46 19 25 1014.4 1014.1 0.0
30/01:30pm 30.3 23.6 3.4 18 13.8 WSW 28 39 15 21 1014.9 1014.6 0.0
30/01:00pm 29.8 24.1 2.9 18 13.6 W 22 30 12 16 1015.4 1015.0 0.0
30/12:30pm 29.2 25.1 6.0 23 12.3 WSW 17 20 9 11 1015.8 1015.5 0.0
30/12:00pm 27.3 24.0 4.4 23 11.7 WSW 11 17 6 9 1016.4 1016.1 0.0
30/11:30am 26.7 24.3 4.5 24 11.3 SSE 6 11 3 6 1016.8 1016.5 0.0
30/11:00am 25.6 23.4 5.2 27 10.4 ESE 6 9 3 5 1017.0 1016.7 0.0
30/10:30am 24.4 22.2 6.2 31 9.4 ENE 7 13 4 7 1017.3 1017.0 0.0
30/10:00am 23.7 20.7 6.0 32 9.1 ENE 11 15 6 8 1017.6 1017.3 0.0
30/09:30am 22.3 19.2 5.7 34 8.4 ESE 11 15 6 8 1017.8 1017.5 0.0
30/09:00am 21.5 18.4 5.4 35 8.1 SE 11 17 6 9 1017.8 1017.5 0.0
30/08:30am 20.8 17.4 6.0 38 7.5 SSE 13 19 7 10 1017.5 1017.2 0.0
30/08:00am 19.5 15.9 5.2 39 7.0 S 13 19 7 10 1017.3 1017.0 0.0
30/07:30am 18.6 16.6 6.1 44 6.2 S 6 7 3 4 1016.8 1016.5 0.0
30/07:00am 18.0 16.3 7.4 50 5.4 SSE 6 7 3 4 1016.5 1016.2 0.0
30/06:30am 17.4 16.2 6.6 49 5.4 SSE 2 9 1 5 1015.9 1015.6 0.0
30/06:00am 18.2 16.2 6.1 45 6.0 SSW 6 7 3 4 1015.7 1015.4 0.0
30/05:30am 18.6 16.6 6.4 45 6.1 W 6 13 3 7 1015.4 1015.0 0.0
30/05:00am 18.6 16.2 6.8 46 6.0 NNW 9 15 5 8 1014.6 1014.3 0.0
30/04:30am 18.2 15.6 7.9 51 5.3 SW 11 15 6 8 1014.0 1013.7 0.0
30/04:00am 18.8 15.0 7.6 48 5.8 WSW 17 20 9 11 1013.6 1013.3 0.0
30/03:30am 18.9 15.6 8.0 49 5.6 WSW 15 17 8 9 1013.6 1013.3 0.0
30/03:00am 18.5 15.4 8.7 53 5.1 SW 15 19 8 10 1013.6 1013.3 0.0
30/02:30am 17.9 15.0 9.5 58 4.4 SW 15 17 8 9 1013.7 1013.4 0.0
30/02:00am 18.3 16.1 9.4 56 4.7 WSW 11 13 6 7 1013.7 1013.4 0.0
30/01:30am 18.5 16.6 9.0 54 5.0 W 9 11 5 6 1014.1 1013.8 0.0
30/01:00am 19.2 17.1 9.7 54 5.1 W 11 13 6 7 1014.2 1013.9 0.0
30/12:30am 19.3 17.3 10.0 55 5.0 W 11 13 6 7 1014.4 1014.1 0.0
30/12:00am 19.9 18.2 9.8 52 5.4 W 9 11 5 6 1014.7 1014.4 0.0
 
Date/Time
EST
Temp
°C
App
Temp
°C
Dew
Point
Rel
Hum
%
Delta-T
°C
Wind Press
QNH
hPa
Press
MSL
hPa
Rain
since 9 am
mm
Dir
 
Spd
km/h
Gust
km/h
Spd
kts
Gust
kts
29/11:30pm 19.6 18.0 10.3 55 5.1 W 9 11 5 6 1014.7 1014.4 0.0
29/11:00pm 19.9 20.0 10.3 54 5.2 CALM 0 2 0 1 1014.7 1014.4 0.0
29/10:30pm 20.3 19.1 10.4 53 5.4 NW 7 11 4 6 1014.7 1014.4 0.0
29/10:00pm 21.2 19.9 9.8 48 6.2 NW 7 7 4 4 1014.6 1014.3 0.0
29/09:30pm 21.8 20.1 10.0 47 6.4 NW 9 11 5 6 1014.7 1014.4 0.0
29/09:00pm 22.2 20.9 10.0 46 6.7 NW 7 9 4 5 1014.6 1014.3 0.0
29/08:30pm 22.9 21.3 8.6 40 7.7 NW 7 9 4 5 1014.3 1014.0 0.0
29/08:00pm 23.4 22.6 8.3 38 8.1 NNW 2 7 1 4 1014.0 1013.7 0.0
29/07:30pm 23.9 22.1 7.9 36 8.5 NW 7 9 4 5 1013.8 1013.5 0.0
29/07:00pm 24.9 23.0 7.5 33 9.3 NW 7 9 4 5 1013.6 1013.3 0.0
29/06:30pm 26.2 24.0 6.3 28 10.4 NW 7 9 4 5 1013.4 1013.1 0.0
29/06:00pm 27.4 25.0 5.1 24 11.5 WNW 7 11 4 6 1013.2 1012.9 0.0
29/05:30pm 27.9 25.6 4.9 23 11.9 W 6 7 3 4 1013.1 1012.8 0.0
29/05:00pm 28.5 24.8 4.7 22 12.3 WNW 13 17 7 9 1012.9 1012.6 0.0
29/04:30pm 28.5 25.6 4.7 22 12.3 W 9 15 5 8 1012.8 1012.5 0.0
29/04:00pm 27.9 25.4 4.9 23 11.9 SW 7 11 4 6 1012.8 1012.5 0.0
29/03:30pm 27.9 25.5 4.2 22 12.1 W 6 13 3 7 1013.0 1012.7 0.0
29/03:00pm 27.4 25.0 5.1 24 11.5 S 7 11 4 6 1013.2 1012.9 0.0
29/02:30pm 26.7 24.3 4.5 24 11.3 E 6 9 3 5 1013.6 1013.3 0.0
29/02:00pm 26.3 23.4 4.7 25 11.0 ENE 9 13 5 7 1014.1 1013.8 0.0
29/01:30pm 25.7 23.0 3.6 24 11.0 ENE 7 13 4 7 1014.4 1014.1 0.0
29/01:00pm 25.6 22.2 5.8 28 10.3 ENE 13 19 7 10 1014.8 1014.5 0.0
29/12:30pm 24.3 20.3 5.1 29 9.7 E 15 20 8 11 1015.2 1014.8 0.0
29/12:00pm 23.6 19.6 5.0 30 9.4 E 15 24 8 13 1015.6 1015.3 0.0
29/11:30am 22.9 18.1 4.9 31 9.0 E 19 20 10 11 1015.9 1015.6 0.0
29/11:00am 21.7 17.1 5.6 35 8.1 SE 19 28 10 15 1016.3 1016.0 0.0
29/10:30am 20.8 16.0 5.6 37 7.6 SE 20 28 11 15 1016.7 1016.4 0.0
29/10:00am 19.9 14.7 5.5 39 7.1 ESE 22 30 12 16 1016.9 1016.6 0.0
29/09:30am 18.9 13.1 6.1 43 6.4 SE 26 33 14 18 1017.1 1016.8 0.0
29/09:00am 19.1 13.7 6.2 43 6.4 ESE 24 33 13 18 1017.0 1016.7 0.0
29/08:30am 17.9 12.2 6.7 48 5.6 ESE 26 35 14 19 1016.9 1016.6 0.0
29/08:00am 17.2 11.3 7.3 52 5.0 SE 28 39 15 21 1016.7 1016.4 0.0
29/07:30am 16.8 12.6 8.2 57 4.4 SE 20 30 11 16 1016.6 1016.3 0.0
29/07:00am 16.5 12.5 8.2 58 4.2 SE 19 30 10 16 1016.1 1015.8 0.0
29/06:30am 16.1 12.0 7.8 58 4.2 SE 19 28 10 15 1015.6 1015.3 0.0
29/06:00am 16.6 12.2 7.3 54 4.7 SE 20 30 11 16 1015.2 1014.8 0.0
29/05:30am 17.0 12.5 6.8 51 5.1 SE 20 28 11 15 1014.8 1014.5 0.0
29/05:00am 17.0 12.8 7.6 54 4.8 SE 19 22 10 12 1014.4 1014.1 0.0
29/04:30am 17.9 13.1 4.5 41 6.4 SSE 19 24 10 13 1014.2 1013.9 0.0
29/04:00am 18.6 14.6 2.9 35 7.3 SW 13 20 7 11 1014.0 1013.7 0.0
29/03:30am 19.5 15.5 2.8 33 7.8 NW 13 30 7 16 1013.4 1013.1 0.0
29/03:00am 19.3 16.0 2.2 32 7.9 WNW 9 13 5 7 1013.0 1012.7 0.0
29/02:30am 21.7 17.0 0.8 25 9.6 NNW 15 20 8 11 1012.9 1012.6 0.0
29/02:00am 21.7 17.7 0.8 25 9.6 NNW 11 17 6 9 1012.9 1012.6 0.0
29/01:30am 21.8 17.4 0.4 24 9.8 N 13 19 7 10 1013.1 1012.8 0.0
29/01:00am 22.7 16.9 -0.1 22 10.4 N 20 24 11 13 1013.1 1012.8 0.0
29/12:30am 22.7 17.0 0.5 23 10.2 N 20 24 11 13 1013.2 1012.9 0.0
29/12:00am 21.8 17.2 1.5 26 9.5 N 15 17 8 9 1013.5 1013.2 0.0
 
Date/Time
EST
Temp
°C
App
Temp
°C
Dew
Point
Rel
Hum
%
Delta-T
°C
Wind Press
QNH
hPa
Press
MSL
hPa
Rain
since 9 am
mm
Dir
 
Spd
km/h
Gust
km/h
Spd
kts
Gust
kts
28/11:30pm 22.8 17.8 1.2 24 10.1 N 17 20 9 11 1013.7 1013.4 0.0
28/11:00pm 21.7 18.3 1.9 27 9.3 NNW 9 11 5 6 1014.1 1013.8 0.0
28/10:30pm 22.8 18.2 1.8 25 9.9 N 15 20 8 11 1013.9 1013.6 0.0
28/10:00pm 22.5 18.4 2.1 26 9.7 N 13 19 7 10 1013.9 1013.6 0.0
28/09:30pm 22.2 18.1 2.3 27 9.4 N 13 15 7 8 1014.0 1013.7 0.0
28/09:00pm 22.6 18.3 3.2 28 9.4 N 15 17 8 9 1013.8 1013.5 0.0
28/08:30pm 22.4 18.5 3.5 29 9.2 N 13 15 7 8 1013.8 1013.5 0.0
28/08:00pm 23.6 19.7 3.5 27 9.9 N 13 17 7 9 1013.5 1013.2 0.0
28/07:30pm 24.8 20.2 3.5 25 10.5 NNW 17 20 9 11 1013.2 1012.9 0.0
28/07:00pm 25.5 21.9 2.9 23 11.1 NNW 11 13 6 7 1013.2 1012.9 0.0

Other Formats:

Comma delimited format used in spreadsheet applications
http://www.bom.gov.au/fwo/IDN60801/IDN60801.94686.axf

JavaScript Object Notation format (JSON) in row-major order
http://www.bom.gov.au/fwo/IDN60801/IDN60801.94686.json